Sukran S — TCKB — position and weather

sailwx.info

Track history (hours):
 
Tides and Currents Weather Stations Pressure Air Temp Water Temp Dewpoint Dewpoint Depression Visibility Wind Speed Wind Dir Waves Ship Positions

Sukran S

Last reported at 2017-Sep-16 02:42 UTC. Time now 2017-Sep-19 19:03 UTC.
Position N 40°43' E 027°29'.

Length 108 m; draft 7.1 m.

Type: Cargo ship. MMSI: 271000056.

Date/timePositionNaut miles runAvg speedWind from/ knotsBaromVisibWave heightAir tempDewpointWater temp
2017-Sep-16 02:42N 40°43' E 027°29'2 9.1
2017-Sep-16 02:30N 40°44' E 027°32'5 9.2
2017-Sep-16 02:00N 40°46' E 027°37'5 9.1
2017-Sep-16 01:30N 40°47' E 027°43'4 8.8
2017-Sep-16 01:00N 40°48' E 027°49'4 8.8
2017-Sep-16 00:30N 40°48' E 027°54'4 8.8
2017-Sep-16 00:00N 40°49' E 028°00'5 8.8
2017-Sep-15 23:27N 40°50' E 028°06'4 8.9
2017-Sep-15 23:00N 40°50' E 028°12'54 2.7
2017-Sep-15 03:00N 41°26' E 029°07'5 9.7
2017-Sep-15 02:30N 41°30' E 029°09'6 9.9
2017-Sep-15 01:56N 41°35' E 029°12'410.0
2017-Sep-15 01:30N 41°40' E 029°14'510.0
2017-Sep-15 01:01N 41°44' E 029°16'5 9.8
2017-Sep-15 00:31N 41°49' E 029°17'5 9.8
2017-Sep-15 00:00N 41°54' E 029°19'5 9.6
2017-Sep-14 23:30N 41°58' E 029°20'5 9.4
2017-Sep-14 23:01N 42°03' E 029°22'5 9.3
2017-Sep-14 22:30N 42°07' E 029°24'5 9.3
2017-Sep-14 22:01N 42°12' E 029°26'5 9.3
2017-Sep-14 21:31N 42°16' E 029°27'5 9.3
2017-Sep-14 21:00N 42°21' E 029°29'5 9.3
2017-Sep-14 20:31N 42°25' E 029°31'5 9.2
2017-Sep-14 20:00N 42°30' E 029°33'5 9.1
2017-Sep-14 19:30N 42°34' E 029°34'4 9.0
2017-Sep-14 19:00N 42°38' E 029°36'4 9.0
2017-Sep-14 18:31N 42°43' E 029°38'5 9.0
2017-Sep-14 18:01N 42°47' E 029°39'5 9.1
2017-Sep-14 17:30N 42°51' E 029°41'5 9.2
2017-Sep-14 17:01N 42°56' E 029°43'5 9.4
2017-Sep-14 16:30N 43°00' E 029°44'5 9.5
2017-Sep-14 16:01N 43°05' E 029°46'5 9.6
2017-Sep-14 15:31N 43°10' E 029°47'5 9.7
2017-Sep-14 15:01N 43°14' E 029°49'5 9.6
2017-Sep-14 14:30N 43°19' E 029°51'5 9.5
2017-Sep-14 14:00N 43°24' E 029°52'5 9.4
2017-Sep-14 13:30N 43°28' E 029°54'5 9.3
2017-Sep-14 13:00N 43°33' E 029°56'5 9.2
2017-Sep-14 12:30N 43°37' E 029°57'5 9.1
2017-Sep-14 12:00N 43°42' E 029°59'5 9.0
2017-Sep-14 11:24N 43°47' E 030°01'44 9.1
2017-Sep-14 06:31N 44°30' E 030°15'111 9.4
2017-Sep-13 18:44N 46°18' E 030°55'2 9.4
2017-Sep-13 18:30N 46°20' E 030°55'5 9.5
2017-Sep-13 18:00N 46°24' E 030°55'6 9.5
2017-Sep-13 17:22N 46°30' E 030°55'3 8.3
2017-Sep-13 17:01N 46°33' E 030°58'4 8.5
2017-Sep-13 16:31N 46°34' E 031°04'4 8.7
2017-Sep-13 16:00N 46°35' E 031°10'4 8.8
2017-Sep-13 15:30N 46°35' E 031°17'4 8.5
2017-Sep-13 14:59N 46°35' E 031°23'4 8.3
2017-Sep-13 14:27N 46°36' E 031°29'3 7.5
2017-Sep-13 14:01N 46°35' E 031°34'4 8.3
2017-Sep-13 13:31N 46°36' E 031°40'4 8.5
2017-Sep-13 13:00N 46°36' E 031°46'4 8.2
2017-Sep-13 12:30N 46°37' E 031°52'4 8.2
2017-Sep-13 12:00N 46°40' E 031°56'4 8.2
2017-Sep-13 11:31N 46°44' E 031°56'4 8.2
2017-Sep-13 11:00N 46°48' E 031°53'4 8.6
2017-Sep-13 10:30N 46°51' E 031°57'4 8.9
2017-Sep-13 10:01N 46°55' E 032°01'2 4.8
2017-Sep-13 09:31N 46°56' E 031°59'0 0.1
2017-Sep-13 08:58N 46°57' E 031°59'0 0.0
2017-Sep-13 08:30N 46°57' E 031°59'0 0.0
2017-Sep-13 08:00N 46°57' E 031°59'0 0.0
2017-Sep-13 07:29N 46°57' E 031°59'0 0.0
2017-Sep-13 07:00N 46°57' E 031°59'0 0.0
2017-Sep-13 06:28N 46°57' E 031°59'0 0.1
2017-Sep-13 06:00N 46°57' E 031°59'0 0.0
2017-Sep-13 05:27N 46°57' E 031°59'0 0.0
2017-Sep-13 04:59N 46°57' E 031°59'0 0.0
2017-Sep-13 04:28N 46°57' E 031°59'0 0.0
2017-Sep-13 04:00N 46°57' E 031°59'0 0.0
2017-Sep-13 03:30N 46°57' E 031°59'0 0.0
2017-Sep-13 02:58N 46°57' E 031°59'0 0.0
2017-Sep-13 02:28N 46°57' E 031°59'0 0.0
2017-Sep-13 01:58N 46°57' E 031°59'0 0.0
2017-Sep-13 01:28N 46°57' E 031°59'0 0.0
2017-Sep-13 00:59N 46°57' E 031°59'0 0.0
2017-Sep-13 00:28N 46°57' E 031°59'0 0.0
2017-Sep-12 23:59N 46°57' E 031°59'0 0.0
2017-Sep-12 23:23N 46°57' E 031°59'0 0.0
2017-Sep-12 23:00N 46°57' E 031°59'0 0.0
2017-Sep-12 22:28N 46°57' E 031°59'0 0.0
2017-Sep-12 21:58N 46°57' E 031°59'0 0.0
2017-Sep-12 21:25N 46°57' E 031°59'0 0.0
2017-Sep-12 20:59N 46°57' E 031°59'0 0.0
2017-Sep-12 20:28N 46°57' E 031°59'0 0.0
2017-Sep-12 19:58N 46°57' E 031°59'0 0.0
2017-Sep-12 19:28N 46°57' E 031°59'0 0.0
2017-Sep-12 18:58N 46°57' E 031°59'0 0.0
2017-Sep-12 18:29N 46°57' E 031°59'0 0.0
2017-Sep-12 18:00N 46°57' E 031°59'0 0.0
2017-Sep-12 17:30N 46°57' E 031°59'0 0.0
2017-Sep-12 16:58N 46°57' E 031°59'0 0.0
2017-Sep-12 16:24N 46°57' E 031°59'0 0.0
2017-Sep-12 15:59N 46°57' E 031°59'0 0.0
2017-Sep-12 15:28N 46°57' E 031°59'0 0.0
2017-Sep-12 14:58N 46°57' E 031°59'0 0.0
2017-Sep-12 14:28N 46°57' E 031°59'0 0.0
2017-Sep-12 13:59N 46°57' E 031°59'0 0.0
2017-Sep-12 13:30N 46°57' E 031°59'0 0.0
2017-Sep-12 12:56N 46°57' E 031°59'0 0.0
2017-Sep-12 12:27N 46°57' E 031°59'0 0.0
2017-Sep-12 11:59N 46°57' E 031°59'0 0.0
2017-Sep-12 11:30N 46°57' E 031°59'0 0.0
2017-Sep-12 11:00N 46°57' E 031°59'0 0.0
2017-Sep-12 10:30N 46°57' E 031°59'0 0.0
2017-Sep-12 10:00N 46°57' E 031°59'0 0.0
2017-Sep-12 09:29N 46°57' E 031°59'0 0.0
2017-Sep-12 08:59N 46°57' E 031°59'0 0.0
2017-Sep-12 08:29N 46°57' E 031°59'0 0.0
2017-Sep-12 07:58N 46°57' E 031°59'0 0.0
2017-Sep-12 07:27N 46°57' E 031°59'0 0.0
2017-Sep-12 06:58N 46°57' E 031°59'0 0.0
2017-Sep-12 06:28N 46°57' E 031°59'0 0.0
2017-Sep-12 05:55N 46°57' E 031°59'0 0.0
2017-Sep-12 05:30N 46°57' E 031°59'0 0.0
2017-Sep-12 04:58N 46°57' E 031°59'0 0.0
2017-Sep-12 04:30N 46°57' E 031°59'0 0.0
2017-Sep-12 03:59N 46°57' E 031°59'0 0.0
2017-Sep-12 03:30N 46°57' E 031°59'0 0.0
2017-Sep-12 02:58N 46°57' E 031°59'0 0.0
2017-Sep-12 02:28N 46°57' E 031°59'0 0.0
2017-Sep-12 01:55N 46°57' E 031°59'0 0.0
2017-Sep-12 01:29N 46°57' E 031°59'0 0.0
2017-Sep-12 00:59N 46°57' E 031°59'0 0.0
2017-Sep-12 00:28N 46°57' E 031°59'0 0.0
2017-Sep-12 00:00N 46°57' E 031°59'0 0.0
2017-Sep-11 23:30N 46°57' E 031°59'0 0.0
2017-Sep-11 23:00N 46°57' E 031°59'0 0.0
2017-Sep-11 22:30N 46°57' E 031°59'0 0.0
2017-Sep-11 21:58N 46°57' E 031°59'0 0.0
2017-Sep-11 21:23N 46°57' E 031°59'0 0.0
2017-Sep-11 21:00N 46°57' E 031°59'0 0.0
2017-Sep-11 20:30N 46°57' E 031°59'0 0.0
2017-Sep-11 19:59N 46°57' E 031°59'0 0.1
2017-Sep-11 19:23N 46°57' E 031°59'0 0.0
2017-Sep-11 19:00N 46°57' E 031°59'0 0.0
2017-Sep-11 18:26N 46°57' E 031°59'0 0.0
2017-Sep-11 17:54N 46°57' E 031°59'0 0.0
2017-Sep-11 17:28N 46°57' E 031°59'0 0.0
2017-Sep-11 16:51N 46°57' E 031°59'0 0.0
2017-Sep-11 16:28N 46°57' E 031°59'0 0.0
2017-Sep-11 16:00N 46°57' E 031°59'0 0.0
2017-Sep-11 15:29N 46°57' E 031°59'0 0.0
2017-Sep-11 14:58N 46°57' E 031°59'0 0.0
2017-Sep-11 14:30N 46°57' E 031°59'0 0.0
2017-Sep-11 14:00N 46°57' E 031°59'0 0.0
2017-Sep-11 13:23N 46°57' E 031°59'0 0.0
2017-Sep-11 13:00N 46°57' E 031°59'0 0.0
2017-Sep-11 12:30N 46°57' E 031°59'0 0.0
2017-Sep-11 11:58N 46°57' E 031°59'0 0.0
2017-Sep-11 11:30N 46°57' E 031°59'0 0.0
2017-Sep-11 11:00N 46°57' E 031°59'0 0.0
2017-Sep-11 10:30N 46°57' E 031°59'0 0.0
2017-Sep-11 09:58N 46°57' E 031°59'0 0.0
2017-Sep-11 09:28N 46°57' E 031°59'0 0.0
2017-Sep-11 08:59N 46°57' E 031°59'0 0.0
2017-Sep-11 08:29N 46°57' E 031°59'0 0.0
2017-Sep-11 07:59N 46°57' E 031°59'0 0.0
2017-Sep-11 07:29N 46°57' E 031°59'0 0.0
2017-Sep-11 07:00N 46°57' E 031°59'0 0.0
2017-Sep-11 06:30N 46°57' E 031°59'0 0.0
2017-Sep-11 05:53N 46°57' E 031°59'0 0.0
2017-Sep-11 05:28N 46°57' E 031°59'0 0.0
2017-Sep-11 05:00N 46°57' E 031°59'0 0.2
2017-Sep-11 04:31N 46°56' E 031°59'2 3.6
2017-Sep-11 04:01N 46°55' E 032°01'4 7.9
2017-Sep-11 03:30N 46°52' E 031°58'510.2
2017-Sep-11 03:01N 46°48' E 031°53'5 9.3
2017-Sep-11 02:30N 46°44' E 031°56'5 9.9
2017-Sep-11 02:00N 46°39' E 031°55'510.0
2017-Sep-11 01:30N 46°36' E 031°49'5 9.6
2017-Sep-11 01:00N 46°36' E 031°42'5 9.5
2017-Sep-11 00:30N 46°35' E 031°35'4 8.0
2017-Sep-11 00:00N 46°36' E 031°30'5 9.5
2017-Sep-10 23:30N 46°35' E 031°23'5 9.7
2017-Sep-10 23:00N 46°35' E 031°16'5 9.9
2017-Sep-10 22:30N 46°35' E 031°09'5 9.9
2017-Sep-10 22:00N 46°34' E 031°02'3 6.2
2017-Sep-10 21:30N 46°33' E 030°57'2 4.2
2017-Sep-10 21:00N 46°31' E 030°56'2 4.1
2017-Sep-10 20:30N 46°29' E 030°56'3 5.5
2017-Sep-10 20:00N 46°26' E 030°57'3 5.1
2017-Sep-10 19:30N 46°23' E 030°57'2 5.0
2017-Sep-10 19:00N 46°21' E 030°57'2 4.9
2017-Sep-10 18:30N 46°18' E 030°57'2 4.8
2017-Sep-10 18:00N 46°16' E 030°58'3 5.0
2017-Sep-10 17:30N 46°14' E 030°57'3 5.2
2017-Sep-10 17:00N 46°11' E 030°56'3 5.3
2017-Sep-10 16:30N 46°09' E 030°55'5 8.0
2017-Sep-10 15:51N 46°03' E 030°53'510.5
2017-Sep-10 15:23N 45°59' E 030°52'610.2
2017-Sep-10 14:46N 45°53' E 030°49'30210.2
2017-Sep-09 09:04N 41°01' E 029°00'2 8.2
2017-Sep-09 08:49N 40°59' E 028°60'3 6.6
2017-Sep-09 08:26N 40°57' E 028°59'2 3.7
2017-Sep-09 07:52N 40°57' E 028°56'1 0.2
2017-Sep-08 23:45N 40°58' E 028°55'1 2.7
2017-Sep-08 23:30N 40°58' E 028°56'4 6.6
2017-Sep-08 22:53N 40°54' E 028°55'3 9.0
2017-Sep-08 22:30N 40°51' E 028°52'6 9.6
2017-Sep-08 21:53N 40°50' E 028°44'5 9.5
2017-Sep-08 21:19N 40°49' E 028°37'3 9.5
2017-Sep-08 21:00N 40°49' E 028°33'5 9.5
2017-Sep-08 20:28N 40°49' E 028°26'16 9.5
2017-Sep-08 18:46N 40°46' E 028°05'3 9.7
2017-Sep-08 18:30N 40°46' E 028°02'82 9.3
2017-Sep-08 09:38N 40°12' E 026°23'23 8.2
2017-Sep-08 06:49N 39°58' E 025°60'3 9.3
2017-Sep-08 06:30N 39°56' E 025°57'5 9.2
2017-Sep-08 06:00N 39°54' E 025°51'8 9.2
2017-Sep-08 05:11N 39°51' E 025°42'2 9.4
2017-Sep-08 04:58N 39°50' E 025°40'36 9.5
2017-Sep-08 01:13N 39°46' E 024°54'2 9.9
2017-Sep-08 00:59N 39°46' E 024°51'9 9.9
2017-Sep-08 00:07N 39°47' E 024°40'2 9.1
2017-Sep-07 23:53N 39°47' E 024°37'4 9.7
2017-Sep-07 23:30N 39°48' E 024°32'510.6
2017-Sep-07 23:00N 39°49' E 024°26'1110.5
2017-Sep-07 22:00N 39°49' E 024°12'510.6
2017-Sep-07 21:30N 39°50' E 024°05'610.9
2017-Sep-07 20:58N 39°50' E 023°57'  
Track history (hours):
 
Tides and Currents Weather Stations Pressure Air Temp Water Temp Dewpoint Dewpoint Depression Visibility Wind Speed Wind Dir Waves Ship Positions

Sukran S

Last reported at 2017-Sep-16 02:42 UTC. Time now 2017-Sep-19 19:03 UTC.
Position N 40°43' E 027°29'.

Length 108 m; draft 7.1 m.

Type: Cargo ship. MMSI: 271000056.

Date/timePositionNaut miles runAvg speedWind from/ knotsBaromVisibWave heightAir tempDewpointWater temp
2017-Sep-16 02:42N 40°43' E 027°29'2 9.1
2017-Sep-16 02:30N 40°44' E 027°32'5 9.2
2017-Sep-16 02:00N 40°46' E 027°37'5 9.1
2017-Sep-16 01:30N 40°47' E 027°43'4 8.8
2017-Sep-16 01:00N 40°48' E 027°49'4 8.8
2017-Sep-16 00:30N 40°48' E 027°54'4 8.8
2017-Sep-16 00:00N 40°49' E 028°00'5 8.8
2017-Sep-15 23:27N 40°50' E 028°06'4 8.9
2017-Sep-15 23:00N 40°50' E 028°12'54 2.7
2017-Sep-15 03:00N 41°26' E 029°07'5 9.7
2017-Sep-15 02:30N 41°30' E 029°09'6 9.9
2017-Sep-15 01:56N 41°35' E 029°12'410.0
2017-Sep-15 01:30N 41°40' E 029°14'510.0
2017-Sep-15 01:01N 41°44' E 029°16'5 9.8
2017-Sep-15 00:31N 41°49' E 029°17'5 9.8
2017-Sep-15 00:00N 41°54' E 029°19'5 9.6
2017-Sep-14 23:30N 41°58' E 029°20'5 9.4
2017-Sep-14 23:01N 42°03' E 029°22'5 9.3
2017-Sep-14 22:30N 42°07' E 029°24'5 9.3
2017-Sep-14 22:01N 42°12' E 029°26'5 9.3
2017-Sep-14 21:31N 42°16' E 029°27'5 9.3
2017-Sep-14 21:00N 42°21' E 029°29'5 9.3
2017-Sep-14 20:31N 42°25' E 029°31'5 9.2
2017-Sep-14 20:00N 42°30' E 029°33'5 9.1
2017-Sep-14 19:30N 42°34' E 029°34'4 9.0
2017-Sep-14 19:00N 42°38' E 029°36'4 9.0
2017-Sep-14 18:31N 42°43' E 029°38'5 9.0
2017-Sep-14 18:01N 42°47' E 029°39'5 9.1
2017-Sep-14 17:30N 42°51' E 029°41'5 9.2
2017-Sep-14 17:01N 42°56' E 029°43'5 9.4
2017-Sep-14 16:30N 43°00' E 029°44'5 9.5
2017-Sep-14 16:01N 43°05' E 029°46'5 9.6
2017-Sep-14 15:31N 43°10' E 029°47'5 9.7
2017-Sep-14 15:01N 43°14' E 029°49'5 9.6
2017-Sep-14 14:30N 43°19' E 029°51'5 9.5
2017-Sep-14 14:00N 43°24' E 029°52'5 9.4
2017-Sep-14 13:30N 43°28' E 029°54'5 9.3
2017-Sep-14 13:00N 43°33' E 029°56'5 9.2
2017-Sep-14 12:30N 43°37' E 029°57'5 9.1
2017-Sep-14 12:00N 43°42' E 029°59'5 9.0
2017-Sep-14 11:24N 43°47' E 030°01'44 9.1
2017-Sep-14 06:31N 44°30' E 030°15'111 9.4
2017-Sep-13 18:44N 46°18' E 030°55'2 9.4
2017-Sep-13 18:30N 46°20' E 030°55'5 9.5
2017-Sep-13 18:00N 46°24' E 030°55'6 9.5
2017-Sep-13 17:22N 46°30' E 030°55'3 8.3
2017-Sep-13 17:01N 46°33' E 030°58'4 8.5
2017-Sep-13 16:31N 46°34' E 031°04'4 8.7
2017-Sep-13 16:00N 46°35' E 031°10'4 8.8
2017-Sep-13 15:30N 46°35' E 031°17'4 8.5
2017-Sep-13 14:59N 46°35' E 031°23'4 8.3
2017-Sep-13 14:27N 46°36' E 031°29'3 7.5
2017-Sep-13 14:01N 46°35' E 031°34'4 8.3
2017-Sep-13 13:31N 46°36' E 031°40'4 8.5
2017-Sep-13 13:00N 46°36' E 031°46'4 8.2
2017-Sep-13 12:30N 46°37' E 031°52'4 8.2
2017-Sep-13 12:00N 46°40' E 031°56'4 8.2
2017-Sep-13 11:31N 46°44' E 031°56'4 8.2
2017-Sep-13 11:00N 46°48' E 031°53'4 8.6
2017-Sep-13 10:30N 46°51' E 031°57'4 8.9
2017-Sep-13 10:01N 46°55' E 032°01'2 4.8
2017-Sep-13 09:31N 46°56' E 031°59'0 0.1
2017-Sep-13 08:58N 46°57' E 031°59'0 0.0
2017-Sep-13 08:30N 46°57' E 031°59'0 0.0
2017-Sep-13 08:00N 46°57' E 031°59'0 0.0
2017-Sep-13 07:29N 46°57' E 031°59'0 0.0
2017-Sep-13 07:00N 46°57' E 031°59'0 0.0
2017-Sep-13 06:28N 46°57' E 031°59'0 0.1
2017-Sep-13 06:00N 46°57' E 031°59'0 0.0
2017-Sep-13 05:27N 46°57' E 031°59'0 0.0
2017-Sep-13 04:59N 46°57' E 031°59'0 0.0
2017-Sep-13 04:28N 46°57' E 031°59'0 0.0
2017-Sep-13 04:00N 46°57' E 031°59'0 0.0
2017-Sep-13 03:30N 46°57' E 031°59'0 0.0
2017-Sep-13 02:58N 46°57' E 031°59'0 0.0
2017-Sep-13 02:28N 46°57' E 031°59'0 0.0
2017-Sep-13 01:58N 46°57' E 031°59'0 0.0
2017-Sep-13 01:28N 46°57' E 031°59'0 0.0
2017-Sep-13 00:59N 46°57' E 031°59'0 0.0
2017-Sep-13 00:28N 46°57' E 031°59'0 0.0
2017-Sep-12 23:59N 46°57' E 031°59'0 0.0
2017-Sep-12 23:23N 46°57' E 031°59'0 0.0
2017-Sep-12 23:00N 46°57' E 031°59'0 0.0
2017-Sep-12 22:28N 46°57' E 031°59'0 0.0
2017-Sep-12 21:58N 46°57' E 031°59'0 0.0
2017-Sep-12 21:25N 46°57' E 031°59'0 0.0
2017-Sep-12 20:59N 46°57' E 031°59'0 0.0
2017-Sep-12 20:28N 46°57' E 031°59'0 0.0
2017-Sep-12 19:58N 46°57' E 031°59'0 0.0
2017-Sep-12 19:28N 46°57' E 031°59'0 0.0
2017-Sep-12 18:58N 46°57' E 031°59'0 0.0
2017-Sep-12 18:29N 46°57' E 031°59'0 0.0
2017-Sep-12 18:00N 46°57' E 031°59'0 0.0
2017-Sep-12 17:30N 46°57' E 031°59'0 0.0
2017-Sep-12 16:58N 46°57' E 031°59'0 0.0
2017-Sep-12 16:24N 46°57' E 031°59'0 0.0
2017-Sep-12 15:59N 46°57' E 031°59'0 0.0
2017-Sep-12 15:28N 46°57' E 031°59'0 0.0
2017-Sep-12 14:58N 46°57' E 031°59'0 0.0
2017-Sep-12 14:28N 46°57' E 031°59'0 0.0
2017-Sep-12 13:59N 46°57' E 031°59'0 0.0
2017-Sep-12 13:30N 46°57' E 031°59'0 0.0
2017-Sep-12 12:56N 46°57' E 031°59'0 0.0
2017-Sep-12 12:27N 46°57' E 031°59'0 0.0
2017-Sep-12 11:59N 46°57' E 031°59'0 0.0
2017-Sep-12 11:30N 46°57' E 031°59'0 0.0
2017-Sep-12 11:00N 46°57' E 031°59'0 0.0
2017-Sep-12 10:30N 46°57' E 031°59'0 0.0
2017-Sep-12 10:00N 46°57' E 031°59'0 0.0
2017-Sep-12 09:29N 46°57' E 031°59'0 0.0
2017-Sep-12 08:59N 46°57' E 031°59'0 0.0
2017-Sep-12 08:29N 46°57' E 031°59'0 0.0
2017-Sep-12 07:58N 46°57' E 031°59'0 0.0
2017-Sep-12 07:27N 46°57' E 031°59'0 0.0
2017-Sep-12 06:58N 46°57' E 031°59'0 0.0
2017-Sep-12 06:28N 46°57' E 031°59'0 0.0
2017-Sep-12 05:55N 46°57' E 031°59'0 0.0
2017-Sep-12 05:30N 46°57' E 031°59'0 0.0
2017-Sep-12 04:58N 46°57' E 031°59'0 0.0
2017-Sep-12 04:30N 46°57' E 031°59'0 0.0
2017-Sep-12 03:59N 46°57' E 031°59'0 0.0
2017-Sep-12 03:30N 46°57' E 031°59'0 0.0
2017-Sep-12 02:58N 46°57' E 031°59'0 0.0
2017-Sep-12 02:28N 46°57' E 031°59'0 0.0
2017-Sep-12 01:55N 46°57' E 031°59'0 0.0
2017-Sep-12 01:29N 46°57' E 031°59'0 0.0
2017-Sep-12 00:59N 46°57' E 031°59'0 0.0
2017-Sep-12 00:28N 46°57' E 031°59'0 0.0
2017-Sep-12 00:00N 46°57' E 031°59'0 0.0
2017-Sep-11 23:30N 46°57' E 031°59'0 0.0
2017-Sep-11 23:00N 46°57' E 031°59'0 0.0
2017-Sep-11 22:30N 46°57' E 031°59'0 0.0
2017-Sep-11 21:58N 46°57' E 031°59'0 0.0
2017-Sep-11 21:23N 46°57' E 031°59'0 0.0
2017-Sep-11 21:00N 46°57' E 031°59'0 0.0
2017-Sep-11 20:30N 46°57' E 031°59'0 0.0
2017-Sep-11 19:59N 46°57' E 031°59'0 0.1
2017-Sep-11 19:23N 46°57' E 031°59'0 0.0
2017-Sep-11 19:00N 46°57' E 031°59'0 0.0
2017-Sep-11 18:26N 46°57' E 031°59'0 0.0
2017-Sep-11 17:54N 46°57' E 031°59'0 0.0
2017-Sep-11 17:28N 46°57' E 031°59'0 0.0
2017-Sep-11 16:51N 46°57' E 031°59'0 0.0
2017-Sep-11 16:28N 46°57' E 031°59'0 0.0
2017-Sep-11 16:00N 46°57' E 031°59'0 0.0
2017-Sep-11 15:29N 46°57' E 031°59'0 0.0
2017-Sep-11 14:58N 46°57' E 031°59'0 0.0
2017-Sep-11 14:30N 46°57' E 031°59'0 0.0
2017-Sep-11 14:00N 46°57' E 031°59'0 0.0
2017-Sep-11 13:23N 46°57' E 031°59'0 0.0
2017-Sep-11 13:00N 46°57' E 031°59'0 0.0
2017-Sep-11 12:30N 46°57' E 031°59'0 0.0
2017-Sep-11 11:58N 46°57' E 031°59'0 0.0
2017-Sep-11 11:30N 46°57' E 031°59'0 0.0
2017-Sep-11 11:00N 46°57' E 031°59'0 0.0
2017-Sep-11 10:30N 46°57' E 031°59'0 0.0
2017-Sep-11 09:58N 46°57' E 031°59'0 0.0
2017-Sep-11 09:28N 46°57' E 031°59'0 0.0
2017-Sep-11 08:59N 46°57' E 031°59'0 0.0
2017-Sep-11 08:29N 46°57' E 031°59'0 0.0
2017-Sep-11 07:59N 46°57' E 031°59'0 0.0
2017-Sep-11 07:29N 46°57' E 031°59'0 0.0
2017-Sep-11 07:00N 46°57' E 031°59'0 0.0
2017-Sep-11 06:30N 46°57' E 031°59'0 0.0
2017-Sep-11 05:53N 46°57' E 031°59'0 0.0
2017-Sep-11 05:28N 46°57' E 031°59'0 0.0
2017-Sep-11 05:00N 46°57' E 031°59'0 0.2
2017-Sep-11 04:31N 46°56' E 031°59'2 3.6
2017-Sep-11 04:01N 46°55' E 032°01'4 7.9
2017-Sep-11 03:30N 46°52' E 031°58'510.2
2017-Sep-11 03:01N 46°48' E 031°53'5 9.3
2017-Sep-11 02:30N 46°44' E 031°56'5 9.9
2017-Sep-11 02:00N 46°39' E 031°55'510.0
2017-Sep-11 01:30N 46°36' E 031°49'5 9.6
2017-Sep-11 01:00N 46°36' E 031°42'5 9.5
2017-Sep-11 00:30N 46°35' E 031°35'4 8.0
2017-Sep-11 00:00N 46°36' E 031°30'5 9.5
2017-Sep-10 23:30N 46°35' E 031°23'5 9.7
2017-Sep-10 23:00N 46°35' E 031°16'5 9.9
2017-Sep-10 22:30N 46°35' E 031°09'5 9.9
2017-Sep-10 22:00N 46°34' E 031°02'3 6.2
2017-Sep-10 21:30N 46°33' E 030°57'2 4.2
2017-Sep-10 21:00N 46°31' E 030°56'2 4.1
2017-Sep-10 20:30N 46°29' E 030°56'3 5.5
2017-Sep-10 20:00N 46°26' E 030°57'3 5.1
2017-Sep-10 19:30N 46°23' E 030°57'2 5.0
2017-Sep-10 19:00N 46°21' E 030°57'2 4.9
2017-Sep-10 18:30N 46°18' E 030°57'2 4.8
2017-Sep-10 18:00N 46°16' E 030°58'3 5.0
2017-Sep-10 17:30N 46°14' E 030°57'3 5.2
2017-Sep-10 17:00N 46°11' E 030°56'3 5.3
2017-Sep-10 16:30N 46°09' E 030°55'5 8.0
2017-Sep-10 15:51N 46°03' E 030°53'510.5
2017-Sep-10 15:23N 45°59' E 030°52'610.2
2017-Sep-10 14:46N 45°53' E 030°49'30210.2
2017-Sep-09 09:04N 41°01' E 029°00'2 8.2
2017-Sep-09 08:49N 40°59' E 028°60'3 6.6
2017-Sep-09 08:26N 40°57' E 028°59'2 3.7
2017-Sep-09 07:52N 40°57' E 028°56'1 0.2
2017-Sep-08 23:45N 40°58' E 028°55'1 2.7
2017-Sep-08 23:30N 40°58' E 028°56'4 6.6
2017-Sep-08 22:53N 40°54' E 028°55'3 9.0
2017-Sep-08 22:30N 40°51' E 028°52'6 9.6
2017-Sep-08 21:53N 40°50' E 028°44'5 9.5
2017-Sep-08 21:19N 40°49' E 028°37'3 9.5
2017-Sep-08 21:00N 40°49' E 028°33'5 9.5
2017-Sep-08 20:28N 40°49' E 028°26'16 9.5
2017-Sep-08 18:46N 40°46' E 028°05'3 9.7
2017-Sep-08 18:30N 40°46' E 028°02'82 9.3
2017-Sep-08 09:38N 40°12' E 026°23'23 8.2
2017-Sep-08 06:49N 39°58' E 025°60'3 9.3
2017-Sep-08 06:30N 39°56' E 025°57'5 9.2
2017-Sep-08 06:00N 39°54' E 025°51'8 9.2
2017-Sep-08 05:11N 39°51' E 025°42'2 9.4
2017-Sep-08 04:58N 39°50' E 025°40'36 9.5
2017-Sep-08 01:13N 39°46' E 024°54'2 9.9
2017-Sep-08 00:59N 39°46' E 024°51'9 9.9
2017-Sep-08 00:07N 39°47' E 024°40'2 9.1
2017-Sep-07 23:53N 39°47' E 024°37'4 9.7
2017-Sep-07 23:30N 39°48' E 024°32'510.6
2017-Sep-07 23:00N 39°49' E 024°26'1110.5
2017-Sep-07 22:00N 39°49' E 024°12'510.6
2017-Sep-07 21:30N 39°50' E 024°05'610.9
2017-Sep-07 20:58N 39°50' E 023°57'  

Dump ship's entire track history